createdAt,value
2018-09-29T00:00:44.072Z,58.26
2018-09-29T00:01:43.886Z,58.24
2018-09-29T00:02:44.308Z,58.24
2018-09-29T00:03:43.981Z,58.22
2018-09-29T00:04:43.986Z,58.25
2018-09-29T00:05:44.051Z,58.27
2018-09-29T00:06:43.911Z,58.23
2018-09-29T00:07:44.045Z,58.24
2018-09-29T00:08:44.107Z,58.26
2018-09-29T00:09:43.834Z,58.26
2018-09-29T00:10:43.954Z,58.25
2018-09-29T00:11:44.128Z,58.25
2018-09-29T00:12:43.939Z,58.22
2018-09-29T00:13:44.010Z,58.28
2018-09-29T00:14:43.998Z,58.17
2018-09-29T00:15:43.933Z,58.24
2018-09-29T00:16:44.033Z,58.24
2018-09-29T00:17:44.001Z,58.24
2018-09-29T00:18:43.921Z,58.2
2018-09-29T00:19:43.888Z,58.24
2018-09-29T00:20:44.305Z,58.21
2018-09-29T00:21:44.013Z,58.31
2018-09-29T00:22:43.901Z,58.21
2018-09-29T00:23:44.268Z,58.28
2018-09-29T00:24:44.180Z,58.2
2018-09-29T00:25:44.026Z,58.27
2018-09-29T00:26:43.837Z,58.26
2018-09-29T00:27:43.884Z,58.23
2018-09-29T00:28:44.100Z,58.19
2018-09-29T00:29:44.226Z,58.21
2018-09-29T00:30:43.982Z,58.22
2018-09-29T00:31:44.242Z,58.2
2018-09-29T00:32:44.021Z,58.24
2018-09-29T00:33:44.018Z,58.2
2018-09-29T00:34:44.068Z,58.22
2018-09-29T00:35:44.280Z,58.21
2018-09-29T00:36:43.852Z,58.22
2018-09-29T00:37:43.906Z,58.27
2018-09-29T00:38:43.874Z,58.26
2018-09-29T00:39:44.112Z,58.27
2018-09-29T00:40:44.080Z,58.25
2018-09-29T00:41:43.914Z,58.27
2018-09-29T00:42:43.951Z,58.18
2018-09-29T00:43:44.015Z,58.19
2018-09-29T00:44:43.780Z,58.24
2018-09-29T00:45:44.089Z,58.21
2018-09-29T00:46:43.906Z,58.21
2018-09-29T00:47:44.117Z,58.24
2018-09-29T00:48:44.121Z,58.21
2018-09-29T00:49:44.113Z,58.21
2018-09-29T00:50:44.065Z,58.2
2018-09-29T00:51:43.908Z,58.2
2018-09-29T00:52:44.264Z,58.27
2018-09-29T00:53:44.339Z,58.2
2018-09-29T00:54:43.995Z,58.23
2018-09-29T00:55:43.989Z,58.27
2018-09-29T00:56:44.107Z,58.3
2018-09-29T00:57:43.999Z,58.28
2018-09-29T00:58:44.242Z,58.23
2018-09-29T00:59:44.047Z,58.28
2018-09-29T01:00:44.222Z,58.28
2018-09-29T01:01:44.360Z,58.27
2018-09-29T01:02:43.799Z,58.24
2018-09-29T01:03:43.937Z,58.28
2018-09-29T01:04:44.054Z,58.27
2018-09-29T01:05:43.939Z,58.25
2018-09-29T01:06:44.024Z,58.3
2018-09-29T01:07:44.101Z,58.27
2018-09-29T01:08:43.924Z,58.29
2018-09-29T01:09:43.963Z,58.28
2018-09-29T01:10:43.990Z,58.22
2018-09-29T01:11:44.003Z,58.23
2018-09-29T01:12:43.778Z,58.29
2018-09-29T01:13:43.947Z,58.15
2018-09-29T01:14:43.827Z,58.23
2018-09-29T01:15:43.935Z,58.28
2018-09-29T01:16:43.785Z,58.2
2018-09-29T01:17:43.945Z,58.25
2018-09-29T01:18:44.333Z,58.28
2018-09-29T01:19:43.948Z,58.24
2018-09-29T01:20:43.910Z,58.18
2018-09-29T01:21:43.756Z,58.25
2018-09-29T01:22:43.978Z,58.14
2018-09-29T01:23:43.864Z,58.14
2018-09-29T01:24:43.852Z,58.23
2018-09-29T01:25:43.936Z,58.24
2018-09-29T01:26:43.864Z,58.25
2018-09-29T01:27:44.166Z,58.21
2018-09-29T01:28:43.861Z,58.23
2018-09-29T01:29:43.919Z,58.25
2018-09-29T01:30:43.862Z,58.18
2018-09-29T01:31:43.929Z,58.21
2018-09-29T01:32:43.795Z,58.24
2018-09-29T01:33:44.132Z,58.22
2018-09-29T01:34:44.006Z,58.25
2018-09-29T01:35:43.899Z,58.24
2018-09-29T01:36:44.177Z,58.24
2018-09-29T01:37:44.261Z,58.2
2018-09-29T01:38:43.766Z,58.27
2018-09-29T01:39:43.986Z,58.27
2018-09-29T01:40:43.993Z,58.19
2018-09-29T01:41:43.873Z,58.24
2018-09-29T01:42:43.915Z,58.18
2018-09-29T01:43:44.114Z,58.22
2018-09-29T01:44:43.892Z,58.26
2018-09-29T01:45:44.128Z,58.18
2018-09-29T01:46:44.134Z,58.21
2018-09-29T01:47:44.007Z,58.15
2018-09-29T01:48:44.129Z,58.22
2018-09-29T01:49:43.900Z,58.17
2018-09-29T01:50:44.190Z,58.19
2018-09-29T01:51:44.079Z,58.21
2018-09-29T01:52:43.808Z,58.25
2018-09-29T01:53:43.884Z,58.15
2018-09-29T01:54:43.819Z,58.17
2018-09-29T01:55:43.816Z,58.25
2018-09-29T01:56:44.177Z,58.21
2018-09-29T01:57:43.829Z,58.14
2018-09-29T01:58:43.956Z,58.17
2018-09-29T01:59:43.877Z,58.17
2018-09-29T02:00:44.379Z,58.16
2018-09-29T02:01:44.129Z,58.21
2018-09-29T02:02:43.802Z,58.21
2018-09-29T02:03:43.921Z,58.15
2018-09-29T02:04:44.101Z,58.12
2018-09-29T02:05:43.771Z,58.18
2018-09-29T02:06:44.060Z,58.21
2018-09-29T02:07:44.114Z,58.16
2018-09-29T02:08:43.843Z,58.19
2018-09-29T02:09:44.323Z,58.25
2018-09-29T02:10:43.841Z,58.25
2018-09-29T02:11:44.076Z,58.24
2018-09-29T02:12:43.943Z,58.21
2018-09-29T02:13:43.951Z,58.25
2018-09-29T02:14:44.090Z,58.25
2018-09-29T02:15:44.144Z,58.27
2018-09-29T02:16:43.985Z,58.25
2018-09-29T02:17:43.911Z,58.27
2018-09-29T02:18:44.162Z,58.25
2018-09-29T02:19:44.103Z,58.26
2018-09-29T02:20:43.800Z,58.22
2018-09-29T02:21:43.896Z,58.27
2018-09-29T02:22:43.781Z,58.2
2018-09-29T02:23:43.873Z,58.18
2018-09-29T02:24:43.956Z,58.19
2018-09-29T02:25:43.972Z,58.18
2018-09-29T02:26:43.996Z,58.16
2018-09-29T02:27:43.770Z,58.17
2018-09-29T02:28:43.934Z,58.19
2018-09-29T02:29:43.888Z,58.15
2018-09-29T02:30:43.823Z,58.13
2018-09-29T02:31:43.841Z,58.19
2018-09-29T02:32:43.873Z,58.17
2018-09-29T02:33:43.813Z,58.21
2018-09-29T02:34:43.821Z,58.18
2018-09-29T02:35:43.990Z,58.17
2018-09-29T02:36:43.910Z,58.16
2018-09-29T02:37:43.841Z,58.14
2018-09-29T02:38:44.007Z,58.12
2018-09-29T02:39:43.913Z,58.16
2018-09-29T02:40:43.923Z,58.19
2018-09-29T02:41:43.714Z,58.14
2018-09-29T02:42:43.831Z,58.21
2018-09-29T02:43:43.837Z,58.11
2018-09-29T02:44:43.716Z,58.08
2018-09-29T02:45:43.847Z,58.17
2018-09-29T02:46:43.888Z,58.13
2018-09-29T02:47:44.077Z,58.13
2018-09-29T02:48:43.855Z,58.13
2018-09-29T02:49:44.104Z,58.13
2018-09-29T02:50:43.933Z,58.14
2018-09-29T02:51:43.784Z,58.17
2018-09-29T02:52:44.082Z,58.12
2018-09-29T02:53:44.067Z,58.18
2018-09-29T02:54:43.782Z,58.14
2018-09-29T02:55:43.997Z,58.19
2018-09-29T02:56:43.942Z,58.17
2018-09-29T02:57:43.827Z,58.08
2018-09-29T02:58:44.338Z,58.14
2018-09-29T02:59:43.741Z,58.11
2018-09-29T03:00:43.947Z,58.15
2018-09-29T03:01:44.124Z,58.14
2018-09-29T03:02:43.853Z,58.13
2018-09-29T03:03:43.892Z,58.17
2018-09-29T03:04:43.686Z,58.16
2018-09-29T03:05:43.896Z,58.22
2018-09-29T03:06:44.006Z,58.17
2018-09-29T03:07:43.804Z,58.13
2018-09-29T03:08:43.960Z,58.12
2018-09-29T03:09:43.896Z,58.13
2018-09-29T03:10:44.130Z,58.06
2018-09-29T03:11:43.770Z,58.06
2018-09-29T03:12:43.846Z,58.13
2018-09-29T03:13:43.946Z,58.12
2018-09-29T03:14:44.037Z,58.09
2018-09-29T03:15:43.803Z,58.15
2018-09-29T03:16:43.795Z,58.16
2018-09-29T03:17:43.868Z,58.14
2018-09-29T03:18:44.068Z,58.14
2018-09-29T03:19:43.858Z,58.11
2018-09-29T03:20:44.196Z,58.12
2018-09-29T03:21:43.734Z,58.13
2018-09-29T03:22:44.308Z,58.11
2018-09-29T03:23:44.057Z,58.05
2018-09-29T03:24:43.779Z,58.04
2018-09-29T03:25:43.915Z,58.02
2018-09-29T03:26:43.798Z,58.08
2018-09-29T03:27:44.161Z,58.09
2018-09-29T03:28:43.818Z,58.02
2018-09-29T03:29:43.968Z,58.02
2018-09-29T03:30:43.930Z,58.08
2018-09-29T03:31:44.461Z,58.09
2018-09-29T03:32:44.146Z,58.08
2018-09-29T03:33:43.866Z,58.11
2018-09-29T03:34:43.880Z,58.11
2018-09-29T03:35:43.873Z,58.09
2018-09-29T03:36:43.824Z,58.1
2018-09-29T03:37:43.879Z,58.07
2018-09-29T03:38:43.972Z,58.07
2018-09-29T03:39:44.029Z,58.06
2018-09-29T03:40:44.279Z,58.05
2018-09-29T03:41:43.857Z,57.99
2018-09-29T03:42:43.928Z,58.04
2018-09-29T03:43:43.711Z,58.08
2018-09-29T03:44:43.929Z,58.08
2018-09-29T03:45:44.012Z,58.05
2018-09-29T03:46:44.069Z,58.04
2018-09-29T03:47:44.111Z,58.08
2018-09-29T03:48:43.859Z,58.07
2018-09-29T03:49:44.077Z,58.04
2018-09-29T03:50:43.687Z,58.03
2018-09-29T03:51:44.022Z,58.01
2018-09-29T03:52:43.748Z,58.03
2018-09-29T03:53:44.153Z,58.02
2018-09-29T03:54:43.930Z,58.08
2018-09-29T03:55:43.888Z,58.02
2018-09-29T03:56:43.732Z,58.02
2018-09-29T03:57:44.341Z,58.03
2018-09-29T03:58:43.873Z,58.01
2018-09-29T03:59:43.825Z,58.02
2018-09-29T04:00:43.849Z,58.08
2018-09-29T04:01:43.989Z,58.05
2018-09-29T04:02:43.928Z,57.97
2018-09-29T04:03:43.684Z,58.04
2018-09-29T04:04:43.717Z,58.01
2018-09-29T04:05:43.866Z,58.04
2018-09-29T04:06:43.933Z,57.97
2018-09-29T04:07:43.908Z,57.97
2018-09-29T04:08:43.780Z,57.95
2018-09-29T04:09:43.917Z,57.97
2018-09-29T04:10:44.028Z,58
2018-09-29T04:11:43.803Z,58.02
2018-09-29T04:12:43.977Z,57.96
2018-09-29T04:13:43.972Z,58.02
2018-09-29T04:14:43.909Z,58
2018-09-29T04:15:43.909Z,57.95
2018-09-29T04:16:43.794Z,58.02
2018-09-29T04:17:43.991Z,58.02
2018-09-29T04:18:43.812Z,58.05
2018-09-29T04:19:44.042Z,58.05
2018-09-29T04:20:43.820Z,57.98
2018-09-29T04:21:43.920Z,58.02
2018-09-29T04:22:43.762Z,57.96
2018-09-29T04:23:43.824Z,57.97
2018-09-29T04:24:43.998Z,57.96
2018-09-29T04:25:43.959Z,57.95
2018-09-29T04:26:44.066Z,57.95
2018-09-29T04:27:43.949Z,57.93
2018-09-29T04:28:43.748Z,57.93
2018-09-29T04:29:43.961Z,57.91
2018-09-29T04:30:44.024Z,57.9
2018-09-29T04:31:43.809Z,57.99
2018-09-29T04:32:43.783Z,58
2018-09-29T04:33:44.093Z,57.94
2018-09-29T04:34:43.676Z,57.97
2018-09-29T04:35:43.986Z,57.9
2018-09-29T04:36:43.873Z,57.91
2018-09-29T04:37:44.033Z,57.86
2018-09-29T04:38:43.952Z,57.9
2018-09-29T04:39:43.930Z,57.98
2018-09-29T04:40:44.181Z,57.92
2018-09-29T04:41:44.031Z,57.91
2018-09-29T04:42:44.151Z,57.91
2018-09-29T04:43:43.980Z,57.99
2018-09-29T04:44:44.238Z,57.95
2018-09-29T04:45:43.758Z,58
2018-09-29T04:46:44.397Z,58.01
2018-09-29T04:47:43.858Z,58.01
2018-09-29T04:48:44.065Z,57.97
2018-09-29T04:49:43.725Z,58
2018-09-29T04:50:44.006Z,58.01
2018-09-29T04:51:43.826Z,57.96
2018-09-29T04:52:44.155Z,57.97
2018-09-29T04:53:43.797Z,57.99
2018-09-29T04:54:43.801Z,57.98
2018-09-29T04:55:43.841Z,58.01
2018-09-29T04:56:44.010Z,57.98
2018-09-29T04:57:44.199Z,57.99
2018-09-29T04:58:44.218Z,57.97
2018-09-29T04:59:43.806Z,57.98
2018-09-29T05:00:43.988Z,57.95
2018-09-29T05:01:44.123Z,57.89
2018-09-29T05:02:43.770Z,57.93
2018-09-29T05:03:43.926Z,57.91
2018-09-29T05:04:44.040Z,58.03
2018-09-29T05:05:43.757Z,57.98
2018-09-29T05:06:43.752Z,57.91
2018-09-29T05:07:43.751Z,57.9
2018-09-29T05:08:43.769Z,57.93
2018-09-29T05:09:43.988Z,57.97
2018-09-29T05:10:44.108Z,57.92
2018-09-29T05:11:43.876Z,57.95
2018-09-29T05:12:43.790Z,57.96
2018-09-29T05:13:43.746Z,57.97
2018-09-29T05:14:43.745Z,57.96
2018-09-29T05:15:44.101Z,57.93
2018-09-29T05:16:43.704Z,57.93
2018-09-29T05:17:43.832Z,57.94
2018-09-29T05:18:43.750Z,57.94
2018-09-29T05:19:43.706Z,58.02
2018-09-29T05:20:43.810Z,57.97
2018-09-29T05:21:43.741Z,58.03
2018-09-29T05:22:43.867Z,57.94
2018-09-29T05:23:43.703Z,57.96
2018-09-29T05:24:43.865Z,57.92
2018-09-29T05:25:44.075Z,57.94
2018-09-29T05:26:43.707Z,58
2018-09-29T05:27:43.853Z,57.95
2018-09-29T05:28:44.295Z,57.97
2018-09-29T05:29:43.673Z,57.95
2018-09-29T05:30:44.097Z,57.95
2018-09-29T05:31:43.858Z,57.89
2018-09-29T05:32:43.682Z,57.95
2018-09-29T05:33:43.974Z,57.91
2018-09-29T05:34:44.225Z,57.89
2018-09-29T05:35:43.657Z,57.81
2018-09-29T05:36:44.064Z,57.96
2018-09-29T05:37:43.919Z,57.93
2018-09-29T05:38:43.910Z,57.89
2018-09-29T05:39:43.739Z,57.86
2018-09-29T05:40:43.718Z,57.98
2018-09-29T05:41:43.755Z,57.89
2018-09-29T05:42:43.690Z,57.96
2018-09-29T05:43:43.800Z,57.95
2018-09-29T05:44:43.688Z,57.94
2018-09-29T05:45:43.897Z,57.93
2018-09-29T05:46:43.720Z,57.96
2018-09-29T05:47:43.873Z,57.92
2018-09-29T05:48:43.737Z,57.94
2018-09-29T05:49:43.641Z,57.96
2018-09-29T05:50:43.836Z,57.95
2018-09-29T05:51:43.993Z,57.91
2018-09-29T05:52:43.742Z,57.98
2018-09-29T05:53:44.134Z,57.95
2018-09-29T05:54:43.735Z,57.97
2018-09-29T05:55:44.406Z,57.98
2018-09-29T05:56:43.900Z,57.85
2018-09-29T05:57:44.210Z,57.92
2018-09-29T05:58:43.695Z,57.94
2018-09-29T05:59:44.008Z,57.97
2018-09-29T06:00:44.147Z,57.99
2018-09-29T06:01:43.957Z,57.96
2018-09-29T06:02:43.689Z,58.07
2018-09-29T06:03:43.748Z,58.02
2018-09-29T06:04:44.154Z,57.97
2018-09-29T06:05:43.970Z,57.97
2018-09-29T06:06:43.736Z,57.93
2018-09-29T06:07:43.961Z,57.9
2018-09-29T06:08:43.855Z,57.86
2018-09-29T06:09:43.823Z,57.82
2018-09-29T06:10:44.074Z,57.89
2018-09-29T06:11:44.078Z,57.85
2018-09-29T06:12:43.809Z,57.86
2018-09-29T06:13:44.078Z,57.89
2018-09-29T06:14:43.756Z,57.88
2018-09-29T06:15:44.070Z,57.85
2018-09-29T06:16:43.844Z,57.94
2018-09-29T06:17:43.855Z,57.88
2018-09-29T06:18:44.127Z,57.87
2018-09-29T06:19:44.056Z,57.88
2018-09-29T06:20:44.097Z,57.85
2018-09-29T06:21:43.845Z,57.89
2018-09-29T06:22:44.096Z,57.93
2018-09-29T06:23:44.077Z,57.81
2018-09-29T06:24:43.662Z,57.81
2018-09-29T06:25:43.945Z,57.85
2018-09-29T06:26:43.661Z,57.86
2018-09-29T06:27:43.962Z,57.91
2018-09-29T06:28:44.028Z,57.92
2018-09-29T06:29:43.844Z,57.91
2018-09-29T06:30:43.875Z,57.96
2018-09-29T06:31:43.707Z,57.89
2018-09-29T06:32:43.683Z,57.9
2018-09-29T06:33:43.809Z,57.9
2018-09-29T06:34:43.837Z,57.9
2018-09-29T06:35:44.040Z,57.86
2018-09-29T06:36:44.753Z,57.79
2018-09-29T06:37:43.781Z,57.83
2018-09-29T06:38:44.320Z,57.82
2018-09-29T06:39:43.997Z,57.85
2018-09-29T06:40:43.913Z,57.83
2018-09-29T06:41:43.936Z,57.83
2018-09-29T06:42:43.993Z,57.91
2018-09-29T06:43:43.768Z,57.91
2018-09-29T06:44:43.720Z,57.85
2018-09-29T06:45:43.835Z,57.86
2018-09-29T06:46:43.884Z,57.91
2018-09-29T06:47:44.001Z,57.91
2018-09-29T06:48:43.863Z,57.87
2018-09-29T06:49:43.848Z,57.86
2018-09-29T06:50:43.778Z,57.85
2018-09-29T06:51:43.677Z,57.85
2018-09-29T06:52:43.811Z,57.84
2018-09-29T06:53:43.721Z,57.82
2018-09-29T06:54:43.994Z,57.79
2018-09-29T06:55:43.833Z,57.78
2018-09-29T06:56:43.826Z,57.78
2018-09-29T06:57:43.697Z,57.82
2018-09-29T06:58:43.906Z,57.89
2018-09-29T06:59:44.545Z,57.79
2018-09-29T07:00:43.784Z,57.85
2018-09-29T07:01:44.004Z,57.89
2018-09-29T07:02:43.773Z,57.84
2018-09-29T07:03:43.906Z,57.83
2018-09-29T07:04:43.776Z,57.83
2018-09-29T07:05:44.046Z,57.84
2018-09-29T07:06:43.827Z,57.84
2018-09-29T07:07:43.943Z,57.84
2018-09-29T07:08:43.937Z,57.82
2018-09-29T07:09:43.764Z,57.87
2018-09-29T07:10:43.797Z,57.81
2018-09-29T07:11:43.766Z,57.84
2018-09-29T07:12:43.948Z,57.78
2018-09-29T07:13:44.186Z,57.9
2018-09-29T07:14:43.892Z,57.83
2018-09-29T07:15:43.794Z,57.86
2018-09-29T07:16:44.323Z,57.8
2018-09-29T07:17:44.023Z,57.79
2018-09-29T07:18:43.772Z,57.83
2018-09-29T07:19:43.750Z,57.87
2018-09-29T07:20:44.013Z,57.8
2018-09-29T07:21:44.256Z,57.86
2018-09-29T07:22:43.766Z,57.81
2018-09-29T07:23:43.767Z,57.79
2018-09-29T07:24:43.984Z,57.87
2018-09-29T07:25:44.287Z,57.84
2018-09-29T07:26:43.898Z,57.8
2018-09-29T07:27:43.768Z,57.78
2018-09-29T07:28:43.985Z,57.84
2018-09-29T07:29:43.695Z,57.82
2018-09-29T07:30:43.877Z,57.83
2018-09-29T07:31:43.910Z,57.74
2018-09-29T07:32:43.960Z,57.77
2018-09-29T07:33:44.007Z,57.69
2018-09-29T07:34:44.031Z,57.73
2018-09-29T07:35:43.945Z,57.74
2018-09-29T07:36:43.734Z,57.75
2018-09-29T07:37:43.964Z,57.75
2018-09-29T07:38:44.047Z,57.77
2018-09-29T07:39:44.143Z,57.78
2018-09-29T07:40:43.715Z,57.83
2018-09-29T07:41:43.793Z,57.86
2018-09-29T07:42:43.737Z,57.83
2018-09-29T07:43:43.993Z,57.77
2018-09-29T07:44:44.180Z,57.76
2018-09-29T07:45:43.831Z,57.8
2018-09-29T07:46:44.212Z,57.74
2018-09-29T07:47:43.748Z,57.75
2018-09-29T07:48:44.221Z,57.76
2018-09-29T07:49:44.040Z,57.77
2018-09-29T07:50:44.138Z,57.77
2018-09-29T07:51:43.906Z,57.75
2018-09-29T07:52:43.832Z,57.75
2018-09-29T07:53:43.864Z,57.78
2018-09-29T07:54:44.136Z,57.76
2018-09-29T07:55:43.910Z,57.85
2018-09-29T07:56:43.724Z,57.75
2018-09-29T07:57:44.599Z,57.77
2018-09-29T07:58:44.100Z,57.74
2018-09-29T07:59:44.195Z,57.75
2018-09-29T08:00:43.729Z,57.68
2018-09-29T08:01:43.917Z,57.72
2018-09-29T08:02:43.812Z,57.72
2018-09-29T08:03:43.982Z,57.76
2018-09-29T08:04:43.748Z,57.72
2018-09-29T08:05:43.876Z,57.7
2018-09-29T08:06:43.676Z,57.77
2018-09-29T08:07:43.740Z,57.78
2018-09-29T08:08:43.995Z,57.7
2018-09-29T08:09:44.074Z,57.71
2018-09-29T08:10:43.852Z,57.79
2018-09-29T08:11:43.755Z,57.71
2018-09-29T08:12:43.741Z,57.71
2018-09-29T08:13:43.932Z,57.72
2018-09-29T08:14:43.848Z,57.71
2018-09-29T08:15:43.764Z,57.75
2018-09-29T08:16:43.843Z,57.69
2018-09-29T08:17:43.855Z,57.65
2018-09-29T08:18:44.049Z,56.75
2018-09-29T08:19:43.933Z,54.87
2018-09-29T08:20:43.837Z,53.87
2018-09-29T08:21:43.797Z,53.35
2018-09-29T08:22:43.834Z,52
2018-09-29T08:23:43.741Z,51.85
2018-09-29T08:24:43.726Z,51.34
2018-09-29T08:25:43.795Z,51.23
2018-09-29T08:26:44.086Z,51.31
2018-09-29T08:27:44.250Z,51.64
2018-09-29T08:28:43.903Z,52.26
2018-09-29T08:29:43.625Z,52.69
2018-09-29T08:30:43.847Z,53.09
2018-09-29T08:31:43.733Z,53.52
2018-09-29T08:32:44.058Z,53.74
2018-09-29T08:33:43.972Z,53.54
2018-09-29T08:34:44.033Z,53.36
2018-09-29T08:35:43.708Z,53.68
2018-09-29T08:36:43.887Z,53.86
2018-09-29T08:37:44.009Z,54.07
2018-09-29T08:38:43.886Z,54.25
2018-09-29T08:39:43.824Z,54.39
2018-09-29T08:40:43.706Z,54.29
2018-09-29T08:41:43.706Z,54.41
2018-09-29T08:42:43.988Z,54.5
2018-09-29T08:43:43.826Z,54.61
2018-09-29T08:44:44.197Z,54.58
2018-09-29T08:45:43.865Z,54.56
2018-09-29T08:46:43.884Z,54.64
2018-09-29T08:47:43.951Z,54.68
2018-09-29T08:48:43.675Z,54.78
2018-09-29T08:49:43.878Z,54.84
2018-09-29T08:50:43.666Z,54.82
2018-09-29T08:51:43.707Z,54.92
2018-09-29T08:52:43.838Z,54.93
2018-09-29T08:53:44.201Z,54.97
2018-09-29T08:54:43.796Z,55.01
2018-09-29T08:55:43.986Z,55.08
2018-09-29T08:56:43.757Z,55.09
2018-09-29T08:57:43.775Z,55.12
2018-09-29T08:58:43.774Z,55.14
2018-09-29T08:59:43.801Z,55.17
2018-09-29T09:00:43.806Z,55.18
2018-09-29T09:01:43.657Z,55.24
2018-09-29T09:02:43.765Z,55.28
2018-09-29T09:03:43.743Z,55.29
2018-09-29T09:04:43.737Z,55.23
2018-09-29T09:05:43.724Z,55.29
2018-09-29T09:06:43.926Z,55.37
2018-09-29T09:07:43.732Z,55.3
2018-09-29T09:08:43.775Z,55.38
2018-09-29T09:09:43.957Z,55.41
2018-09-29T09:10:43.635Z,55.45
2018-09-29T09:11:43.706Z,55.51
2018-09-29T09:12:43.871Z,55.57
2018-09-29T09:13:44.052Z,55.64
2018-09-29T09:14:44.127Z,55.63
2018-09-29T09:15:44.019Z,55.67
2018-09-29T09:16:43.852Z,55.67
2018-09-29T09:17:43.726Z,55.68
2018-09-29T09:18:43.675Z,55.75
2018-09-29T09:19:43.952Z,55.78
2018-09-29T09:20:43.790Z,55.75
2018-09-29T09:21:43.963Z,55.79
2018-09-29T09:22:43.953Z,55.8
2018-09-29T09:23:44.044Z,55.8
2018-09-29T09:24:43.805Z,55.81
2018-09-29T09:25:43.976Z,55.88
2018-09-29T09:26:44.107Z,55.89
2018-09-29T09:27:44.131Z,55.83
2018-09-29T09:28:43.874Z,55.83
2018-09-29T09:29:43.965Z,55.82
2018-09-29T09:30:43.782Z,55.83
2018-09-29T09:31:43.790Z,55.88
2018-09-29T09:32:43.873Z,55.88
2018-09-29T09:33:43.807Z,55.89
2018-09-29T09:34:43.787Z,55.94
2018-09-29T09:35:43.893Z,55.9
2018-09-29T09:36:43.653Z,55.93
2018-09-29T09:37:43.845Z,55.93
2018-09-29T09:38:43.658Z,55.95
2018-09-29T09:39:43.717Z,55.96
2018-09-29T09:40:43.716Z,55.99
2018-09-29T09:41:43.761Z,56.02
2018-09-29T09:42:43.913Z,55.98
2018-09-29T09:43:43.613Z,56.03
2018-09-29T09:44:43.863Z,56.02
2018-09-29T09:45:43.628Z,56.06
2018-09-29T09:46:43.625Z,56.09
2018-09-29T09:47:43.595Z,56.03
2018-09-29T09:50:43.824Z,56.13
2018-09-29T09:51:43.993Z,56.11
2018-09-29T09:52:43.874Z,56.11
2018-09-29T09:53:43.737Z,56.04
2018-09-29T09:55:44.013Z,56.14
2018-09-29T09:56:43.895Z,56.14
2018-09-29T09:57:43.833Z,56.11
2018-09-29T09:58:43.966Z,56.17
2018-09-29T10:00:43.724Z,56.22
2018-09-29T10:01:43.896Z,56.2
2018-09-29T10:02:43.853Z,56.19
2018-09-29T10:03:43.808Z,56.19
2018-09-29T10:05:44.077Z,56.18
2018-09-29T10:06:43.661Z,56.2
2018-09-29T10:07:43.907Z,56.2
2018-09-29T10:08:43.882Z,56.27
2018-09-29T10:10:43.828Z,56.27
2018-09-29T10:11:43.938Z,56.23
2018-09-29T10:12:43.805Z,56.27
2018-09-29T10:13:44.046Z,56.25
2018-09-29T10:15:43.895Z,56.26
2018-09-29T10:16:43.809Z,56.25
2018-09-29T10:17:43.780Z,56.24
2018-09-29T10:18:43.696Z,56.45
2018-09-29T10:20:43.782Z,56.44
2018-09-29T10:21:44.097Z,56.4
2018-09-29T10:23:44.111Z,56.41
2018-09-29T10:24:43.869Z,56.45
2018-09-29T10:26:43.692Z,56.37
2018-09-29T10:28:43.890Z,56.29
2018-09-29T10:29:43.952Z,56.3
2018-09-29T10:30:44.274Z,56.37
2018-09-29T10:31:43.812Z,56.43
2018-09-29T10:33:43.836Z,56.35
2018-09-29T10:34:43.966Z,56.5
2018-09-29T10:36:43.729Z,56.42
2018-09-29T10:37:43.811Z,56.48
2018-09-29T10:38:43.654Z,56.37
2018-09-29T10:39:43.876Z,56.39
2018-09-29T10:41:43.741Z,56.38
2018-09-29T10:42:43.694Z,56.44
2018-09-29T10:43:43.683Z,56.46
2018-09-29T10:44:43.947Z,56.39
2018-09-29T10:46:43.792Z,56.37
2018-09-29T10:47:43.974Z,56.48
2018-09-29T10:49:43.789Z,56.49
2018-09-29T10:50:43.781Z,56.52
2018-09-29T10:51:43.726Z,56.46
2018-09-29T10:52:43.737Z,56.41
2018-09-29T10:54:43.711Z,56.42
2018-09-29T10:55:43.600Z,56.42
2018-09-29T10:56:43.818Z,56.38
2018-09-29T10:57:43.842Z,56.4
2018-09-29T10:59:43.624Z,56.43
2018-09-29T11:00:43.694Z,56.35
2018-09-29T11:01:43.697Z,56.42
2018-09-29T11:02:43.834Z,56.28
2018-09-29T11:04:43.767Z,56.33
2018-09-29T11:05:43.639Z,56.35
2018-09-29T11:06:43.835Z,56.37
2018-09-29T11:07:43.758Z,56.32
2018-09-29T11:09:44.064Z,56.3
2018-09-29T11:10:43.920Z,56.34
2018-09-29T11:11:43.652Z,56.33
2018-09-29T11:12:43.755Z,56.36
2018-09-29T11:14:43.757Z,56.45
2018-09-29T11:15:43.752Z,56.35
2018-09-29T11:16:43.738Z,56.34
2018-09-29T11:17:43.796Z,56.24
2018-09-29T11:19:43.799Z,56.21
2018-09-29T11:20:43.923Z,56.11
2018-09-29T11:21:43.687Z,56.14
2018-09-29T11:22:43.873Z,56.15
2018-09-29T11:25:43.698Z,56.03
2018-09-29T11:26:43.693Z,55.87
2018-09-29T11:27:44.197Z,55.82
2018-09-29T11:30:43.803Z,55.9
2018-09-29T11:31:43.890Z,55.83
2018-09-29T11:33:43.755Z,55.79
2018-09-29T11:34:43.639Z,55.79
2018-09-29T11:35:43.736Z,55.71
2018-09-29T11:36:43.890Z,55.72
2018-09-29T11:38:43.937Z,55.66
2018-09-29T11:39:43.774Z,55.67
2018-09-29T11:40:43.621Z,55.75
2018-09-29T11:41:44.016Z,55.67
2018-09-29T11:43:43.717Z,55.62
2018-09-29T11:44:43.799Z,55.66
2018-09-29T11:45:43.812Z,55.6
2018-09-29T11:46:43.760Z,55.81
2018-09-29T11:48:43.871Z,55.79
2018-09-29T11:49:44.091Z,55.8
2018-09-29T11:51:43.721Z,55.78
2018-09-29T11:53:43.963Z,55.83
2018-09-29T11:54:43.831Z,55.86
2018-09-29T11:55:43.740Z,55.68
2018-09-29T11:56:43.747Z,55.82
2018-09-29T11:58:43.612Z,55.87
2018-09-29T11:59:43.779Z,55.85
2018-09-29T12:00:43.967Z,55.79
2018-09-29T12:01:44.128Z,55.8
2018-09-29T12:04:43.722Z,55.89
2018-09-29T12:05:43.606Z,55.73
2018-09-29T12:06:43.762Z,55.82
2018-09-29T12:08:43.828Z,55.89
2018-09-29T12:09:43.724Z,55.85
2018-09-29T12:10:43.568Z,55.83
2018-09-29T12:11:43.598Z,55.89
2018-09-29T12:13:43.914Z,55.88
2018-09-29T12:14:43.692Z,55.91
2018-09-29T12:15:43.633Z,55.94
2018-09-29T12:16:43.813Z,55.92
2018-09-29T12:18:43.738Z,56
2018-09-29T12:19:44.186Z,56.03
2018-09-29T12:20:43.780Z,55.97
2018-09-29T12:21:43.671Z,55.98
2018-09-29T12:26:00.759Z,56.36
2018-09-29T12:27:00.748Z,55.93
2018-09-29T12:28:01.148Z,55.89
2018-09-29T12:29:00.750Z,55.77
2018-09-29T12:30:01.394Z,55.75
2018-09-29T12:31:01.206Z,55.72
2018-09-29T12:32:01.521Z,55.7
2018-09-29T12:33:01.016Z,55.65
2018-09-29T12:34:01.127Z,55.67
2018-09-29T12:35:01.049Z,55.57
2018-09-29T12:36:00.778Z,55.46
2018-09-29T12:37:01.420Z,55.47
2018-09-29T12:38:00.652Z,55.55
2018-09-29T12:39:00.707Z,55.6
2018-09-29T12:40:00.768Z,55.28
2018-09-29T12:41:00.859Z,55.01
2018-09-29T12:42:00.898Z,49.89
2018-09-29T12:43:01.042Z,47.5
2018-09-29T12:44:00.760Z,46.28
2018-09-29T12:45:00.921Z,46.24
2018-09-29T12:46:00.983Z,44.81
2018-09-29T12:47:00.744Z,43.94
2018-09-29T12:48:00.931Z,44.33
2018-09-29T12:49:00.700Z,43.51
2018-09-29T12:50:01.132Z,42.94
2018-09-29T12:51:00.587Z,42.77
2018-09-29T12:52:01.068Z,42.44
2018-09-29T12:53:00.772Z,42.37
2018-09-29T12:54:00.617Z,41.68
2018-09-29T12:55:00.815Z,41.53
2018-09-29T12:56:00.777Z,42.06
2018-09-29T12:57:00.734Z,41.84
2018-09-29T12:58:01.317Z,41.15
2018-09-29T12:59:01.368Z,41.55
2018-09-29T13:00:00.848Z,41.96
2018-09-29T13:01:01.626Z,45.07
2018-09-29T13:02:00.942Z,45.54
2018-09-29T13:03:00.859Z,46.3
2018-09-29T13:04:00.866Z,47.21
2018-09-29T13:05:00.629Z,47.62
2018-09-29T13:06:00.877Z,48.41
2018-09-29T13:07:00.641Z,48.53
2018-09-29T13:08:00.792Z,48.5
2018-09-29T13:09:01.218Z,48.82
2018-09-29T13:10:00.587Z,48.59
2018-09-29T13:11:01.029Z,48.74
2018-09-29T13:12:00.960Z,48.96
2018-09-29T13:13:00.886Z,49.28
2018-09-29T13:14:01.220Z,49.58
2018-09-29T13:15:00.764Z,49.79
2018-09-29T13:16:00.728Z,49.94
2018-09-29T13:17:01.315Z,50.33
2018-09-29T13:18:00.680Z,50.24
2018-09-29T13:19:00.773Z,50.39
2018-09-29T13:20:00.722Z,50.49
2018-09-29T13:21:00.863Z,50.77
2018-09-29T13:22:00.706Z,50.93
2018-09-29T13:23:00.894Z,50.93
2018-09-29T13:24:01.007Z,50.99
2018-09-29T13:25:01.000Z,50.98
2018-09-29T13:26:01.178Z,51.09
2018-09-29T13:27:01.008Z,51.44
2018-09-29T13:28:00.869Z,51.25
2018-09-29T13:29:00.933Z,51.41
2018-09-29T13:30:01.215Z,51.52
2018-09-29T13:31:00.822Z,51.62
2018-09-29T13:32:00.857Z,51.68
2018-09-29T13:33:00.837Z,51.83
2018-09-29T13:34:00.830Z,51.89
2018-09-29T13:35:00.957Z,51.92
2018-09-29T13:36:00.676Z,51.98
2018-09-29T13:37:00.922Z,52.07